sensor_id;sensor_type;location;lat;lon;timestamp;P1;durP1;ratioP1;P2;durP2;ratioP2
79480;SDS011;68944;48.262;14.208;2023-12-28T00:00:20;9.60;;;3.85;;
79480;SDS011;68944;48.262;14.208;2023-12-28T00:02:46;10.00;;;4.57;;
79480;SDS011;68944;48.262;14.208;2023-12-28T00:05:11;8.50;;;3.83;;
79480;SDS011;68944;48.262;14.208;2023-12-28T00:07:37;10.07;;;4.10;;
79480;SDS011;68944;48.262;14.208;2023-12-28T00:10:03;8.82;;;4.18;;
79480;SDS011;68944;48.262;14.208;2023-12-28T00:12:29;8.27;;;3.80;;
79480;SDS011;68944;48.262;14.208;2023-12-28T00:14:54;8.73;;;3.90;;
79480;SDS011;68944;48.262;14.208;2023-12-28T00:17:20;9.40;;;3.90;;
79480;SDS011;68944;48.262;14.208;2023-12-28T00:19:45;9.65;;;4.13;;
79480;SDS011;68944;48.262;14.208;2023-12-28T00:22:11;9.98;;;4.07;;
79480;SDS011;68944;48.262;14.208;2023-12-28T00:24:36;7.88;;;3.65;;
79480;SDS011;68944;48.262;14.208;2023-12-28T00:27:02;10.63;;;4.00;;
79480;SDS011;68944;48.262;14.208;2023-12-28T00:29:28;9.90;;;5.15;;
79480;SDS011;68944;48.262;14.208;2023-12-28T00:34:22;11.50;;;4.32;;
79480;SDS011;68944;48.262;14.208;2023-12-28T00:36:48;9.88;;;4.40;;
79480;SDS011;68944;48.262;14.208;2023-12-28T00:39:13;11.45;;;4.20;;
79480;SDS011;68944;48.262;14.208;2023-12-28T00:41:40;8.90;;;4.30;;
79480;SDS011;68944;48.262;14.208;2023-12-28T00:44:05;9.43;;;4.28;;
79480;SDS011;68944;48.262;14.208;2023-12-28T00:46:34;10.88;;;4.35;;
79480;SDS011;68944;48.262;14.208;2023-12-28T00:49:00;8.73;;;4.32;;
79480;SDS011;68944;48.262;14.208;2023-12-28T00:51:26;11.05;;;4.30;;
79480;SDS011;68944;48.262;14.208;2023-12-28T00:53:51;10.30;;;4.40;;
79480;SDS011;68944;48.262;14.208;2023-12-28T00:56:17;9.48;;;4.28;;
79480;SDS011;68944;48.262;14.208;2023-12-28T00:58:42;9.85;;;4.40;;
79480;SDS011;68944;48.262;14.208;2023-12-28T01:01:09;9.43;;;4.15;;
79480;SDS011;68944;48.262;14.208;2023-12-28T01:03:35;9.05;;;3.92;;
79480;SDS011;68944;48.262;14.208;2023-12-28T01:06:00;9.82;;;4.10;;
79480;SDS011;68944;48.262;14.208;2023-12-28T01:08:27;9.80;;;3.65;;
79480;SDS011;68944;48.262;14.208;2023-12-28T01:10:52;8.98;;;3.78;;
79480;SDS011;68944;48.262;14.208;2023-12-28T01:13:18;9.15;;;3.38;;
79480;SDS011;68944;48.262;14.208;2023-12-28T01:15:43;10.10;;;3.53;;
79480;SDS011;68944;48.262;14.208;2023-12-28T01:18:10;7.88;;;2.83;;
79480;SDS011;68944;48.262;14.208;2023-12-28T01:20:36;6.93;;;3.15;;
79480;SDS011;68944;48.262;14.208;2023-12-28T01:23:03;8.15;;;2.92;;
79480;SDS011;68944;48.262;14.208;2023-12-28T01:25:28;9.05;;;3.10;;
79480;SDS011;68944;48.262;14.208;2023-12-28T01:27:54;6.97;;;2.90;;
79480;SDS011;68944;48.262;14.208;2023-12-28T01:30:20;8.15;;;3.45;;
79480;SDS011;68944;48.262;14.208;2023-12-28T01:32:45;8.32;;;3.17;;
79480;SDS011;68944;48.262;14.208;2023-12-28T01:35:11;6.80;;;2.78;;
79480;SDS011;68944;48.262;14.208;2023-12-28T01:37:36;7.65;;;2.75;;
79480;SDS011;68944;48.262;14.208;2023-12-28T01:40:02;7.63;;;2.63;;
79480;SDS011;68944;48.262;14.208;2023-12-28T01:42:29;7.80;;;3.15;;
79480;SDS011;68944;48.262;14.208;2023-12-28T01:44:56;7.38;;;2.70;;
79480;SDS011;68944;48.262;14.208;2023-12-28T01:47:26;10.43;;;3.42;;
79480;SDS011;68944;48.262;14.208;2023-12-28T01:49:52;9.55;;;2.95;;
79480;SDS011;68944;48.262;14.208;2023-12-28T01:52:19;9.82;;;3.53;;
79480;SDS011;68944;48.262;14.208;2023-12-28T01:54:45;7.72;;;3.05;;
79480;SDS011;68944;48.262;14.208;2023-12-28T01:57:11;8.52;;;3.72;;
79480;SDS011;68944;48.262;14.208;2023-12-28T01:59:38;6.93;;;3.08;;
79480;SDS011;68944;48.262;14.208;2023-12-28T02:02:06;7.20;;;2.90;;
79480;SDS011;68944;48.262;14.208;2023-12-28T02:04:32;10.52;;;4.05;;
79480;SDS011;68944;48.262;14.208;2023-12-28T02:06:59;10.13;;;3.35;;
79480;SDS011;68944;48.262;14.208;2023-12-28T02:09:25;8.52;;;4.30;;
79480;SDS011;68944;48.262;14.208;2023-12-28T02:11:51;14.05;;;4.03;;
79480;SDS011;68944;48.262;14.208;2023-12-28T02:14:17;8.30;;;3.75;;
79480;SDS011;68944;48.262;14.208;2023-12-28T02:16:49;12.43;;;4.10;;
79480;SDS011;68944;48.262;14.208;2023-12-28T02:19:37;10.05;;;4.05;;
79480;SDS011;68944;48.262;14.208;2023-12-28T02:22:13;7.85;;;3.67;;
79480;SDS011;68944;48.262;14.208;2023-12-28T02:25:04;10.68;;;4.25;;
79480;SDS011;68944;48.262;14.208;2023-12-28T02:27:31;8.30;;;3.40;;
79480;SDS011;68944;48.262;14.208;2023-12-28T02:30:01;9.10;;;3.88;;
79480;SDS011;68944;48.262;14.208;2023-12-28T02:32:48;10.25;;;4.25;;
79480;SDS011;68944;48.262;14.208;2023-12-28T02:35:39;19.42;;;5.07;;
79480;SDS011;68944;48.262;14.208;2023-12-28T02:38:09;8.30;;;3.63;;
79480;SDS011;68944;48.262;14.208;2023-12-28T02:40:37;7.65;;;3.35;;
79480;SDS011;68944;48.262;14.208;2023-12-28T02:43:05;8.32;;;3.50;;
79480;SDS011;68944;48.262;14.208;2023-12-28T02:45:31;8.93;;;3.80;;
79480;SDS011;68944;48.262;14.208;2023-12-28T02:47:57;8.73;;;3.72;;
79480;SDS011;68944;48.262;14.208;2023-12-28T02:50:22;8.75;;;3.78;;
79480;SDS011;68944;48.262;14.208;2023-12-28T02:52:48;9.95;;;3.78;;
79480;SDS011;68944;48.262;14.208;2023-12-28T02:55:14;7.13;;;3.60;;
79480;SDS011;68944;48.262;14.208;2023-12-28T02:57:39;8.13;;;3.60;;
79480;SDS011;68944;48.262;14.208;2023-12-28T03:00:05;10.10;;;3.88;;
79480;SDS011;68944;48.262;14.208;2023-12-28T03:02:34;7.80;;;4.00;;
79480;SDS011;68944;48.262;14.208;2023-12-28T03:05:02;9.18;;;3.47;;
79480;SDS011;68944;48.262;14.208;2023-12-28T03:07:28;11.65;;;3.90;;
79480;SDS011;68944;48.262;14.208;2023-12-28T03:09:54;8.18;;;3.97;;
79480;SDS011;68944;48.262;14.208;2023-12-28T03:12:20;9.05;;;3.50;;
79480;SDS011;68944;48.262;14.208;2023-12-28T03:14:45;7.05;;;3.00;;
79480;SDS011;68944;48.262;14.208;2023-12-28T03:17:10;10.35;;;3.38;;
79480;SDS011;68944;48.262;14.208;2023-12-28T03:19:37;8.32;;;4.03;;
79480;SDS011;68944;48.262;14.208;2023-12-28T03:22:03;10.15;;;4.40;;
79480;SDS011;68944;48.262;14.208;2023-12-28T03:24:28;9.43;;;4.30;;
79480;SDS011;68944;48.262;14.208;2023-12-28T03:26:54;12.32;;;4.93;;
79480;SDS011;68944;48.262;14.208;2023-12-28T03:29:20;8.75;;;3.95;;
79480;SDS011;68944;48.262;14.208;2023-12-28T03:31:45;7.60;;;3.40;;
79480;SDS011;68944;48.262;14.208;2023-12-28T03:34:11;8.48;;;3.63;;
79480;SDS011;68944;48.262;14.208;2023-12-28T03:36:36;9.57;;;4.25;;
79480;SDS011;68944;48.262;14.208;2023-12-28T03:39:02;9.18;;;3.38;;
79480;SDS011;68944;48.262;14.208;2023-12-28T03:41:31;10.07;;;3.97;;
79480;SDS011;68944;48.262;14.208;2023-12-28T03:43:56;10.25;;;3.90;;
79480;SDS011;68944;48.262;14.208;2023-12-28T03:46:22;8.63;;;3.78;;
79480;SDS011;68944;48.262;14.208;2023-12-28T03:48:47;7.35;;;3.08;;
79480;SDS011;68944;48.262;14.208;2023-12-28T03:51:13;8.52;;;3.55;;
79480;SDS011;68944;48.262;14.208;2023-12-28T03:53:41;7.90;;;3.10;;
79480;SDS011;68944;48.262;14.208;2023-12-28T03:56:18;8.27;;;3.88;;
79480;SDS011;68944;48.262;14.208;2023-12-28T03:58:47;8.70;;;3.70;;
79480;SDS011;68944;48.262;14.208;2023-12-28T04:01:12;12.70;;;4.05;;
79480;SDS011;68944;48.262;14.208;2023-12-28T04:03:38;7.88;;;3.42;;
79480;SDS011;68944;48.262;14.208;2023-12-28T04:06:04;10.50;;;4.00;;
79480;SDS011;68944;48.262;14.208;2023-12-28T04:08:30;7.85;;;4.13;;
79480;SDS011;68944;48.262;14.208;2023-12-28T04:10:55;8.82;;;3.85;;
79480;SDS011;68944;48.262;14.208;2023-12-28T04:13:22;7.95;;;3.70;;
79480;SDS011;68944;48.262;14.208;2023-12-28T04:15:47;8.77;;;4.05;;
79480;SDS011;68944;48.262;14.208;2023-12-28T04:18:13;8.50;;;3.60;;
79480;SDS011;68944;48.262;14.208;2023-12-28T04:20:38;9.00;;;3.78;;
79480;SDS011;68944;48.262;14.208;2023-12-28T04:23:04;8.48;;;3.85;;
79480;SDS011;68944;48.262;14.208;2023-12-28T04:25:29;8.82;;;4.20;;
79480;SDS011;68944;48.262;14.208;2023-12-28T04:27:55;11.63;;;4.30;;
79480;SDS011;68944;48.262;14.208;2023-12-28T04:30:20;9.25;;;4.10;;
79480;SDS011;68944;48.262;14.208;2023-12-28T04:32:46;9.35;;;4.15;;
79480;SDS011;68944;48.262;14.208;2023-12-28T04:35:12;10.13;;;4.35;;
79480;SDS011;68944;48.262;14.208;2023-12-28T04:37:37;8.43;;;4.10;;
79480;SDS011;68944;48.262;14.208;2023-12-28T04:40:03;8.85;;;4.10;;
79480;SDS011;68944;48.262;14.208;2023-12-28T04:42:29;9.15;;;4.03;;
79480;SDS011;68944;48.262;14.208;2023-12-28T04:44:54;8.48;;;3.88;;
79480;SDS011;68944;48.262;14.208;2023-12-28T04:47:20;10.52;;;4.85;;
79480;SDS011;68944;48.262;14.208;2023-12-28T04:49:45;9.57;;;3.88;;
79480;SDS011;68944;48.262;14.208;2023-12-28T04:52:11;9.55;;;4.13;;
79480;SDS011;68944;48.262;14.208;2023-12-28T04:54:39;8.77;;;3.30;;
79480;SDS011;68944;48.262;14.208;2023-12-28T04:57:06;7.32;;;3.25;;
79480;SDS011;68944;48.262;14.208;2023-12-28T04:59:37;9.45;;;3.45;;
79480;SDS011;68944;48.262;14.208;2023-12-28T05:02:06;9.07;;;3.60;;
79480;SDS011;68944;48.262;14.208;2023-12-28T05:04:32;11.63;;;5.30;;
79480;SDS011;68944;48.262;14.208;2023-12-28T05:06:58;11.88;;;4.38;;
79480;SDS011;68944;48.262;14.208;2023-12-28T05:09:23;8.63;;;3.83;;
79480;SDS011;68944;48.262;14.208;2023-12-28T05:11:49;6.78;;;3.00;;
79480;SDS011;68944;48.262;14.208;2023-12-28T05:14:14;6.78;;;2.95;;
79480;SDS011;68944;48.262;14.208;2023-12-28T05:16:40;7.47;;;3.03;;
79480;SDS011;68944;48.262;14.208;2023-12-28T05:19:05;7.18;;;3.15;;
79480;SDS011;68944;48.262;14.208;2023-12-28T05:21:31;6.93;;;2.85;;
79480;SDS011;68944;48.262;14.208;2023-12-28T05:23:56;7.35;;;3.00;;
79480;SDS011;68944;48.262;14.208;2023-12-28T05:26:22;7.63;;;4.07;;
79480;SDS011;68944;48.262;14.208;2023-12-28T05:28:48;7.97;;;3.40;;
79480;SDS011;68944;48.262;14.208;2023-12-28T05:31:14;9.90;;;3.33;;
79480;SDS011;68944;48.262;14.208;2023-12-28T05:33:39;6.70;;;2.75;;
79480;SDS011;68944;48.262;14.208;2023-12-28T05:36:05;8.27;;;3.15;;
79480;SDS011;68944;48.262;14.208;2023-12-28T05:38:31;6.85;;;3.05;;
79480;SDS011;68944;48.262;14.208;2023-12-28T05:40:56;7.85;;;3.15;;
79480;SDS011;68944;48.262;14.208;2023-12-28T05:43:22;10.73;;;4.50;;
79480;SDS011;68944;48.262;14.208;2023-12-28T05:45:47;8.23;;;3.80;;
79480;SDS011;68944;48.262;14.208;2023-12-28T05:48:13;8.90;;;3.60;;
79480;SDS011;68944;48.262;14.208;2023-12-28T05:50:39;7.32;;;3.05;;
79480;SDS011;68944;48.262;14.208;2023-12-28T05:53:05;7.13;;;2.90;;
79480;SDS011;68944;48.262;14.208;2023-12-28T05:55:31;8.02;;;3.10;;
79480;SDS011;68944;48.262;14.208;2023-12-28T05:57:57;6.93;;;3.00;;
79480;SDS011;68944;48.262;14.208;2023-12-28T06:00:22;6.60;;;2.78;;
79480;SDS011;68944;48.262;14.208;2023-12-28T06:02:47;7.30;;;3.15;;
79480;SDS011;68944;48.262;14.208;2023-12-28T06:05:16;6.82;;;2.80;;
79480;SDS011;68944;48.262;14.208;2023-12-28T06:07:42;7.07;;;2.83;;
79480;SDS011;68944;48.262;14.208;2023-12-28T06:10:09;7.18;;;2.85;;
79480;SDS011;68944;48.262;14.208;2023-12-28T06:12:34;6.45;;;3.03;;
79480;SDS011;68944;48.262;14.208;2023-12-28T06:15:00;7.35;;;2.95;;
79480;SDS011;68944;48.262;14.208;2023-12-28T06:17:26;8.02;;;3.45;;
79480;SDS011;68944;48.262;14.208;2023-12-28T06:19:52;6.57;;;2.95;;
79480;SDS011;68944;48.262;14.208;2023-12-28T06:22:17;11.80;;;3.90;;
79480;SDS011;68944;48.262;14.208;2023-12-28T06:24:43;29.02;;;12.82;;
79480;SDS011;68944;48.262;14.208;2023-12-28T06:27:08;12.38;;;5.20;;
79480;SDS011;68944;48.262;14.208;2023-12-28T06:29:34;14.70;;;5.18;;
79480;SDS011;68944;48.262;14.208;2023-12-28T06:31:59;11.35;;;4.68;;
79480;SDS011;68944;48.262;14.208;2023-12-28T06:34:25;7.68;;;3.53;;
79480;SDS011;68944;48.262;14.208;2023-12-28T06:36:51;9.50;;;3.80;;
79480;SDS011;68944;48.262;14.208;2023-12-28T06:39:17;8.10;;;3.50;;
79480;SDS011;68944;48.262;14.208;2023-12-28T06:41:42;8.32;;;3.83;;
79480;SDS011;68944;48.262;14.208;2023-12-28T06:44:12;11.68;;;3.88;;
79480;SDS011;68944;48.262;14.208;2023-12-28T06:46:39;9.82;;;4.20;;
79480;SDS011;68944;48.262;14.208;2023-12-28T06:49:04;10.90;;;4.95;;
79480;SDS011;68944;48.262;14.208;2023-12-28T06:51:31;11.27;;;5.07;;
79480;SDS011;68944;48.262;14.208;2023-12-28T06:53:56;15.52;;;5.82;;
79480;SDS011;68944;48.262;14.208;2023-12-28T06:56:22;12.65;;;5.90;;
79480;SDS011;68944;48.262;14.208;2023-12-28T06:58:48;11.48;;;5.28;;
79480;SDS011;68944;48.262;14.208;2023-12-28T07:01:13;12.32;;;5.20;;
79480;SDS011;68944;48.262;14.208;2023-12-28T07:03:39;10.25;;;5.50;;
79480;SDS011;68944;48.262;14.208;2023-12-28T07:06:05;13.50;;;6.43;;
79480;SDS011;68944;48.262;14.208;2023-12-28T07:08:30;11.55;;;5.50;;
79480;SDS011;68944;48.262;14.208;2023-12-28T07:10:56;11.63;;;5.25;;
79480;SDS011;68944;48.262;14.208;2023-12-28T07:13:22;11.15;;;5.32;;
79480;SDS011;68944;48.262;14.208;2023-12-28T07:15:48;31.48;;;5.30;;
79480;SDS011;68944;48.262;14.208;2023-12-28T07:18:13;11.48;;;5.50;;
79480;SDS011;68944;48.262;14.208;2023-12-28T07:20:39;10.65;;;4.90;;
79480;SDS011;68944;48.262;14.208;2023-12-28T07:23:06;17.42;;;7.93;;
79480;SDS011;68944;48.262;14.208;2023-12-28T07:25:32;14.57;;;5.13;;
79480;SDS011;68944;48.262;14.208;2023-12-28T07:27:58;9.98;;;4.95;;
79480;SDS011;68944;48.262;14.208;2023-12-28T07:30:23;9.20;;;4.13;;
79480;SDS011;68944;48.262;14.208;2023-12-28T07:32:49;8.95;;;3.92;;
79480;SDS011;68944;48.262;14.208;2023-12-28T07:35:14;8.32;;;4.00;;
79480;SDS011;68944;48.262;14.208;2023-12-28T07:37:40;9.38;;;4.40;;
79480;SDS011;68944;48.262;14.208;2023-12-28T07:40:06;8.98;;;4.30;;
79480;SDS011;68944;48.262;14.208;2023-12-28T07:42:31;10.15;;;4.80;;
79480;SDS011;68944;48.262;14.208;2023-12-28T07:44:57;12.13;;;4.45;;
79480;SDS011;68944;48.262;14.208;2023-12-28T07:47:22;10.38;;;4.32;;
79480;SDS011;68944;48.262;14.208;2023-12-28T07:49:48;11.88;;;4.72;;
79480;SDS011;68944;48.262;14.208;2023-12-28T07:52:14;14.00;;;4.50;;
79480;SDS011;68944;48.262;14.208;2023-12-28T07:54:40;10.90;;;4.90;;
79480;SDS011;68944;48.262;14.208;2023-12-28T07:57:05;11.07;;;5.43;;
79480;SDS011;68944;48.262;14.208;2023-12-28T07:59:31;10.95;;;5.43;;
79480;SDS011;68944;48.262;14.208;2023-12-28T08:01:56;10.23;;;5.18;;
79480;SDS011;68944;48.262;14.208;2023-12-28T08:04:22;12.50;;;6.80;;
79480;SDS011;68944;48.262;14.208;2023-12-28T08:06:48;12.57;;;6.60;;
79480;SDS011;68944;48.262;14.208;2023-12-28T08:09:13;11.80;;;5.72;;
79480;SDS011;68944;48.262;14.208;2023-12-28T08:11:39;10.15;;;4.43;;
79480;SDS011;68944;48.262;14.208;2023-12-28T08:14:04;8.60;;;3.38;;
79480;SDS011;68944;48.262;14.208;2023-12-28T08:16:30;7.65;;;3.28;;
79480;SDS011;68944;48.262;14.208;2023-12-28T08:18:56;10.80;;;3.65;;
79480;SDS011;68944;48.262;14.208;2023-12-28T08:21:21;7.72;;;3.33;;
79480;SDS011;68944;48.262;14.208;2023-12-28T08:23:47;8.20;;;3.42;;
79480;SDS011;68944;48.262;14.208;2023-12-28T08:26:12;9.30;;;4.03;;
79480;SDS011;68944;48.262;14.208;2023-12-28T08:28:38;8.15;;;3.17;;
79480;SDS011;68944;48.262;14.208;2023-12-28T08:31:04;12.27;;;5.70;;
79480;SDS011;68944;48.262;14.208;2023-12-28T08:33:30;8.30;;;3.13;;
79480;SDS011;68944;48.262;14.208;2023-12-28T08:35:55;8.95;;;3.45;;
79480;SDS011;68944;48.262;14.208;2023-12-28T08:38:20;10.73;;;4.05;;
79480;SDS011;68944;48.262;14.208;2023-12-28T08:40:47;8.75;;;3.85;;
79480;SDS011;68944;48.262;14.208;2023-12-28T08:43:12;7.97;;;3.83;;
79480;SDS011;68944;48.262;14.208;2023-12-28T08:45:38;6.60;;;3.03;;
79480;SDS011;68944;48.262;14.208;2023-12-28T08:48:03;7.53;;;3.13;;
79480;SDS011;68944;48.262;14.208;2023-12-28T08:50:30;7.60;;;3.35;;
79480;SDS011;68944;48.262;14.208;2023-12-28T08:52:55;8.45;;;4.20;;
79480;SDS011;68944;48.262;14.208;2023-12-28T08:55:22;9.82;;;3.88;;
79480;SDS011;68944;48.262;14.208;2023-12-28T08:57:47;9.32;;;5.03;;
79480;SDS011;68944;48.262;14.208;2023-12-28T09:00:13;11.15;;;4.85;;
79480;SDS011;68944;48.262;14.208;2023-12-28T09:02:42;8.75;;;4.32;;
79480;SDS011;68944;48.262;14.208;2023-12-28T09:05:09;12.77;;;5.78;;
79480;SDS011;68944;48.262;14.208;2023-12-28T09:07:35;12.90;;;5.43;;
79480;SDS011;68944;48.262;14.208;2023-12-28T09:10:04;18.98;;;6.50;;
79480;SDS011;68944;48.262;14.208;2023-12-28T09:12:30;23.30;;;6.55;;
79480;SDS011;68944;48.262;14.208;2023-12-28T09:14:55;14.75;;;6.00;;
79480;SDS011;68944;48.262;14.208;2023-12-28T09:17:21;67.90;;;7.18;;
79480;SDS011;68944;48.262;14.208;2023-12-28T09:19:47;25.75;;;5.95;;
79480;SDS011;68944;48.262;14.208;2023-12-28T09:22:12;13.52;;;6.25;;
79480;SDS011;68944;48.262;14.208;2023-12-28T09:24:38;12.25;;;5.90;;
79480;SDS011;68944;48.262;14.208;2023-12-28T09:27:03;15.05;;;6.25;;
79480;SDS011;68944;48.262;14.208;2023-12-28T09:29:29;17.95;;;7.78;;
79480;SDS011;68944;48.262;14.208;2023-12-28T09:31:54;12.40;;;5.80;;
79480;SDS011;68944;48.262;14.208;2023-12-28T09:34:20;11.32;;;5.57;;
79480;SDS011;68944;48.262;14.208;2023-12-28T09:36:45;9.70;;;5.28;;
79480;SDS011;68944;48.262;14.208;2023-12-28T09:39:11;10.90;;;5.38;;
79480;SDS011;68944;48.262;14.208;2023-12-28T09:41:38;12.88;;;4.88;;
79480;SDS011;68944;48.262;14.208;2023-12-28T09:46:37;9.30;;;4.82;;
79480;SDS011;68944;48.262;14.208;2023-12-28T09:49:06;8.32;;;4.32;;
79480;SDS011;68944;48.262;14.208;2023-12-28T09:51:32;8.40;;;3.65;;
79480;SDS011;68944;48.262;14.208;2023-12-28T09:53:57;8.77;;;4.88;;
79480;SDS011;68944;48.262;14.208;2023-12-28T09:56:23;9.45;;;4.32;;
79480;SDS011;68944;48.262;14.208;2023-12-28T09:58:50;9.90;;;4.95;;
79480;SDS011;68944;48.262;14.208;2023-12-28T10:01:17;9.63;;;4.30;;
79480;SDS011;68944;48.262;14.208;2023-12-28T10:03:43;9.23;;;4.25;;
79480;SDS011;68944;48.262;14.208;2023-12-28T10:06:09;9.10;;;5.00;;
79480;SDS011;68944;48.262;14.208;2023-12-28T10:08:34;8.35;;;4.20;;
79480;SDS011;68944;48.262;14.208;2023-12-28T10:11:01;9.82;;;4.70;;
79480;SDS011;68944;48.262;14.208;2023-12-28T10:13:27;8.88;;;4.28;;
79480;SDS011;68944;48.262;14.208;2023-12-28T10:15:56;9.65;;;4.22;;
79480;SDS011;68944;48.262;14.208;2023-12-28T10:18:22;8.85;;;3.80;;
79480;SDS011;68944;48.262;14.208;2023-12-28T10:20:51;8.80;;;4.00;;
79480;SDS011;68944;48.262;14.208;2023-12-28T10:23:20;8.00;;;3.40;;
79480;SDS011;68944;48.262;14.208;2023-12-28T10:25:46;8.73;;;3.22;;
79480;SDS011;68944;48.262;14.208;2023-12-28T10:28:13;7.25;;;2.88;;
79480;SDS011;68944;48.262;14.208;2023-12-28T10:30:39;7.43;;;2.90;;
79480;SDS011;68944;48.262;14.208;2023-12-28T10:33:08;11.15;;;4.90;;
79480;SDS011;68944;48.262;14.208;2023-12-28T10:35:33;9.57;;;4.57;;
79480;SDS011;68944;48.262;14.208;2023-12-28T10:38:02;9.32;;;4.22;;
79480;SDS011;68944;48.262;14.208;2023-12-28T10:40:29;9.15;;;4.60;;
79480;SDS011;68944;48.262;14.208;2023-12-28T10:42:58;9.00;;;4.50;;
79480;SDS011;68944;48.262;14.208;2023-12-28T10:45:26;9.68;;;4.72;;
79480;SDS011;68944;48.262;14.208;2023-12-28T10:48:04;11.68;;;4.75;;
79480;SDS011;68944;48.262;14.208;2023-12-28T10:50:34;9.07;;;4.25;;
79480;SDS011;68944;48.262;14.208;2023-12-28T10:53:04;8.60;;;4.13;;
79480;SDS011;68944;48.262;14.208;2023-12-28T11:01:48;9.50;;;3.88;;
79480;SDS011;68944;48.262;14.208;2023-12-28T11:04:34;9.30;;;4.38;;
79480;SDS011;68944;48.262;14.208;2023-12-28T11:07:09;8.63;;;3.65;;
79480;SDS011;68944;48.262;14.208;2023-12-28T11:09:36;10.05;;;3.70;;
79480;SDS011;68944;48.262;14.208;2023-12-28T11:12:04;9.15;;;4.30;;
79480;SDS011;68944;48.262;14.208;2023-12-28T11:14:33;8.98;;;4.07;;
79480;SDS011;68944;48.262;14.208;2023-12-28T11:16:59;9.05;;;5.05;;
79480;SDS011;68944;48.262;14.208;2023-12-28T11:19:31;10.80;;;4.28;;
79480;SDS011;68944;48.262;14.208;2023-12-28T11:21:58;9.20;;;4.30;;
79480;SDS011;68944;48.262;14.208;2023-12-28T11:24:27;8.70;;;4.20;;
79480;SDS011;68944;48.262;14.208;2023-12-28T11:26:54;9.20;;;4.38;;
79480;SDS011;68944;48.262;14.208;2023-12-28T11:29:20;10.23;;;4.63;;
79480;SDS011;68944;48.262;14.208;2023-12-28T11:31:53;9.32;;;4.03;;
79480;SDS011;68944;48.262;14.208;2023-12-28T11:34:27;9.60;;;4.85;;
79480;SDS011;68944;48.262;14.208;2023-12-28T11:36:55;9.48;;;4.32;;
79480;SDS011;68944;48.262;14.208;2023-12-28T11:39:31;9.52;;;4.97;;
79480;SDS011;68944;48.262;14.208;2023-12-28T11:42:07;10.70;;;5.05;;
79480;SDS011;68944;48.262;14.208;2023-12-28T11:44:37;8.95;;;3.95;;
79480;SDS011;68944;48.262;14.208;2023-12-28T11:47:13;8.32;;;3.58;;
79480;SDS011;68944;48.262;14.208;2023-12-28T11:49:40;8.48;;;3.58;;
79480;SDS011;68944;48.262;14.208;2023-12-28T11:52:06;8.48;;;3.63;;
79480;SDS011;68944;48.262;14.208;2023-12-28T11:54:33;9.55;;;3.90;;
79480;SDS011;68944;48.262;14.208;2023-12-28T11:56:58;8.40;;;4.10;;
79480;SDS011;68944;48.262;14.208;2023-12-28T11:59:24;8.77;;;4.32;;
79480;SDS011;68944;48.262;14.208;2023-12-28T12:01:50;10.27;;;4.45;;
79480;SDS011;68944;48.262;14.208;2023-12-28T12:04:20;10.13;;;4.80;;
79480;SDS011;68944;48.262;14.208;2023-12-28T12:06:46;11.68;;;4.97;;
79480;SDS011;68944;48.262;14.208;2023-12-28T12:09:12;8.70;;;4.20;;
79480;SDS011;68944;48.262;14.208;2023-12-28T12:11:40;9.23;;;4.22;;
79480;SDS011;68944;48.262;14.208;2023-12-28T12:14:09;9.68;;;4.60;;
79480;SDS011;68944;48.262;14.208;2023-12-28T12:16:36;10.55;;;5.10;;
79480;SDS011;68944;48.262;14.208;2023-12-28T12:19:05;10.32;;;5.53;;
79480;SDS011;68944;48.262;14.208;2023-12-28T12:21:34;10.45;;;5.53;;
79480;SDS011;68944;48.262;14.208;2023-12-28T12:24:00;10.60;;;5.32;;
79480;SDS011;68944;48.262;14.208;2023-12-28T12:26:29;11.00;;;5.57;;
79480;SDS011;68944;48.262;14.208;2023-12-28T12:28:56;10.85;;;5.47;;
79480;SDS011;68944;48.262;14.208;2023-12-28T12:31:21;20.75;;;10.25;;
79480;SDS011;68944;48.262;14.208;2023-12-28T12:33:48;17.20;;;9.13;;
79480;SDS011;68944;48.262;14.208;2023-12-28T12:36:13;14.02;;;7.18;;
79480;SDS011;68944;48.262;14.208;2023-12-28T12:38:39;11.20;;;5.90;;
79480;SDS011;68944;48.262;14.208;2023-12-28T12:41:05;11.80;;;5.63;;
79480;SDS011;68944;48.262;14.208;2023-12-28T12:43:33;11.65;;;5.78;;
79480;SDS011;68944;48.262;14.208;2023-12-28T12:45:59;13.35;;;7.25;;
79480;SDS011;68944;48.262;14.208;2023-12-28T12:48:25;12.25;;;5.80;;
79480;SDS011;68944;48.262;14.208;2023-12-28T12:50:51;12.52;;;6.32;;
79480;SDS011;68944;48.262;14.208;2023-12-28T12:53:16;14.05;;;5.55;;
79480;SDS011;68944;48.262;14.208;2023-12-28T12:55:42;12.77;;;6.15;;
79480;SDS011;68944;48.262;14.208;2023-12-28T12:58:12;11.40;;;5.45;;
79480;SDS011;68944;48.262;14.208;2023-12-28T13:00:41;11.30;;;5.90;;
79480;SDS011;68944;48.262;14.208;2023-12-28T13:03:10;17.17;;;8.20;;
79480;SDS011;68944;48.262;14.208;2023-12-28T13:05:35;12.10;;;6.20;;
79480;SDS011;68944;48.262;14.208;2023-12-28T13:08:02;12.07;;;6.07;;
79480;SDS011;68944;48.262;14.208;2023-12-28T13:10:29;11.45;;;5.78;;
79480;SDS011;68944;48.262;14.208;2023-12-28T13:12:58;10.20;;;5.38;;
79480;SDS011;68944;48.262;14.208;2023-12-28T13:15:23;11.52;;;5.05;;
79480;SDS011;68944;48.262;14.208;2023-12-28T13:17:49;10.35;;;5.25;;
79480;SDS011;68944;48.262;14.208;2023-12-28T13:20:14;10.60;;;5.78;;
79480;SDS011;68944;48.262;14.208;2023-12-28T13:22:40;10.50;;;5.55;;
79480;SDS011;68944;48.262;14.208;2023-12-28T13:25:05;10.18;;;4.75;;
79480;SDS011;68944;48.262;14.208;2023-12-28T13:27:31;12.10;;;5.85;;
79480;SDS011;68944;48.262;14.208;2023-12-28T13:29:57;17.65;;;8.85;;
79480;SDS011;68944;48.262;14.208;2023-12-28T13:32:22;12.73;;;6.90;;
79480;SDS011;68944;48.262;14.208;2023-12-28T13:34:48;14.30;;;7.70;;
79480;SDS011;68944;48.262;14.208;2023-12-28T13:37:16;13.68;;;6.38;;
79480;SDS011;68944;48.262;14.208;2023-12-28T13:39:42;12.88;;;6.07;;
79480;SDS011;68944;48.262;14.208;2023-12-28T13:42:07;15.88;;;7.38;;
79480;SDS011;68944;48.262;14.208;2023-12-28T13:44:34;13.68;;;7.05;;
79480;SDS011;68944;48.262;14.208;2023-12-28T13:47:01;15.75;;;7.85;;
79480;SDS011;68944;48.262;14.208;2023-12-28T13:49:27;13.52;;;7.00;;
79480;SDS011;68944;48.262;14.208;2023-12-28T13:51:52;13.50;;;6.28;;
79480;SDS011;68944;48.262;14.208;2023-12-28T13:54:18;13.45;;;6.22;;
79480;SDS011;68944;48.262;14.208;2023-12-28T13:56:47;12.85;;;6.30;;
79480;SDS011;68944;48.262;14.208;2023-12-28T13:59:13;13.40;;;6.15;;
79480;SDS011;68944;48.262;14.208;2023-12-28T14:01:38;13.82;;;5.82;;
79480;SDS011;68944;48.262;14.208;2023-12-28T14:04:04;11.02;;;6.00;;
79480;SDS011;68944;48.262;14.208;2023-12-28T14:06:30;15.15;;;6.28;;
79480;SDS011;68944;48.262;14.208;2023-12-28T14:08:56;11.80;;;6.25;;
79480;SDS011;68944;48.262;14.208;2023-12-28T14:11:23;13.35;;;6.50;;
79480;SDS011;68944;48.262;14.208;2023-12-28T14:13:49;16.33;;;6.20;;
79480;SDS011;68944;48.262;14.208;2023-12-28T14:16:14;13.73;;;5.80;;
79480;SDS011;68944;48.262;14.208;2023-12-28T14:18:40;11.98;;;5.80;;
79480;SDS011;68944;48.262;14.208;2023-12-28T14:21:07;14.10;;;6.13;;
79480;SDS011;68944;48.262;14.208;2023-12-28T14:23:34;21.15;;;9.38;;
79480;SDS011;68944;48.262;14.208;2023-12-28T14:26:02;17.38;;;8.15;;
79480;SDS011;68944;48.262;14.208;2023-12-28T14:28:42;26.10;;;10.68;;
79480;SDS011;68944;48.262;14.208;2023-12-28T14:31:09;29.73;;;11.93;;
79480;SDS011;68944;48.262;14.208;2023-12-28T14:33:35;33.53;;;13.07;;
79480;SDS011;68944;48.262;14.208;2023-12-28T14:36:01;35.22;;;14.27;;